sensor_id;sensor_type;location;lat;lon;timestamp;P1;durP1;ratioP1;P2;durP2;ratioP2
64643;SDS011;51056;50.330;7.914;2023-06-22T00:00:31;6.85;;;4.72;;
64643;SDS011;51056;50.330;7.914;2023-06-22T00:03:35;10.43;;;5.50;;
64643;SDS011;51056;50.330;7.914;2023-06-22T00:06:38;6.05;;;4.72;;
64643;SDS011;51056;50.330;7.914;2023-06-22T00:09:41;6.45;;;5.18;;
64643;SDS011;51056;50.330;7.914;2023-06-22T00:12:45;5.70;;;4.82;;
64643;SDS011;51056;50.330;7.914;2023-06-22T00:15:48;9.55;;;4.85;;
64643;SDS011;51056;50.330;7.914;2023-06-22T00:18:52;5.43;;;4.85;;
64643;SDS011;51056;50.330;7.914;2023-06-22T00:21:55;6.18;;;5.47;;
64643;SDS011;51056;50.330;7.914;2023-06-22T00:24:58;7.75;;;5.65;;
64643;SDS011;51056;50.330;7.914;2023-06-22T00:28:02;7.30;;;5.50;;
64643;SDS011;51056;50.330;7.914;2023-06-22T00:31:07;6.18;;;5.32;;
64643;SDS011;51056;50.330;7.914;2023-06-22T00:34:10;5.82;;;5.22;;
64643;SDS011;51056;50.330;7.914;2023-06-22T00:37:13;6.57;;;5.10;;
64643;SDS011;51056;50.330;7.914;2023-06-22T00:40:16;6.28;;;5.05;;
64643;SDS011;51056;50.330;7.914;2023-06-22T00:43:24;7.32;;;5.18;;
64643;SDS011;51056;50.330;7.914;2023-06-22T00:46:27;5.63;;;5.13;;
64643;SDS011;51056;50.330;7.914;2023-06-22T00:49:30;6.32;;;5.72;;
64643;SDS011;51056;50.330;7.914;2023-06-22T00:52:34;6.05;;;5.40;;
64643;SDS011;51056;50.330;7.914;2023-06-22T00:55:41;6.72;;;5.10;;
64643;SDS011;51056;50.330;7.914;2023-06-22T00:58:49;8.70;;;4.90;;
64643;SDS011;51056;50.330;7.914;2023-06-22T01:01:55;9.25;;;5.88;;
64643;SDS011;51056;50.330;7.914;2023-06-22T01:04:59;8.48;;;5.63;;
64643;SDS011;51056;50.330;7.914;2023-06-22T01:08:12;7.80;;;5.43;;
64643;SDS011;51056;50.330;7.914;2023-06-22T01:11:31;7.95;;;6.10;;
64643;SDS011;51056;50.330;7.914;2023-06-22T01:14:42;6.82;;;6.13;;
64643;SDS011;51056;50.330;7.914;2023-06-22T01:17:49;6.72;;;5.22;;
64643;SDS011;51056;50.330;7.914;2023-06-22T01:20:55;7.10;;;5.93;;
64643;SDS011;51056;50.330;7.914;2023-06-22T01:24:22;9.68;;;5.60;;
64643;SDS011;51056;50.330;7.914;2023-06-22T01:30:58;9.38;;;5.00;;
64643;SDS011;51056;50.330;7.914;2023-06-22T01:34:08;5.60;;;4.97;;
64643;SDS011;51056;50.330;7.914;2023-06-22T01:37:14;6.05;;;5.45;;
64643;SDS011;51056;50.330;7.914;2023-06-22T01:40:18;7.63;;;5.47;;
64643;SDS011;51056;50.330;7.914;2023-06-22T01:43:23;8.43;;;5.82;;
64643;SDS011;51056;50.330;7.914;2023-06-22T01:46:29;5.75;;;5.10;;
64643;SDS011;51056;50.330;7.914;2023-06-22T01:49:32;6.75;;;6.03;;
64643;SDS011;51056;50.330;7.914;2023-06-22T01:52:36;8.10;;;6.32;;
64643;SDS011;51056;50.330;7.914;2023-06-22T01:55:39;6.60;;;5.90;;
64643;SDS011;51056;50.330;7.914;2023-06-22T01:58:45;6.60;;;5.97;;
64643;SDS011;51056;50.330;7.914;2023-06-22T02:02:04;6.07;;;5.47;;
64643;SDS011;51056;50.330;7.914;2023-06-22T02:05:12;9.73;;;5.53;;
64643;SDS011;51056;50.330;7.914;2023-06-22T02:08:21;7.72;;;6.15;;
64643;SDS011;51056;50.330;7.914;2023-06-22T02:11:27;6.47;;;5.88;;
64643;SDS011;51056;50.330;7.914;2023-06-22T02:14:33;7.13;;;6.07;;
64643;SDS011;51056;50.330;7.914;2023-06-22T02:17:38;8.45;;;6.32;;
64643;SDS011;51056;50.330;7.914;2023-06-22T02:20:41;6.80;;;5.75;;
64643;SDS011;51056;50.330;7.914;2023-06-22T02:23:45;6.65;;;5.80;;
64643;SDS011;51056;50.330;7.914;2023-06-22T02:26:49;8.98;;;6.00;;
64643;SDS011;51056;50.330;7.914;2023-06-22T02:29:52;9.77;;;6.07;;
64643;SDS011;51056;50.330;7.914;2023-06-22T02:32:55;9.20;;;6.10;;
64643;SDS011;51056;50.330;7.914;2023-06-22T02:36:01;7.65;;;6.00;;
64643;SDS011;51056;50.330;7.914;2023-06-22T02:39:07;6.85;;;6.07;;
64643;SDS011;51056;50.330;7.914;2023-06-22T02:42:11;7.05;;;6.35;;
64643;SDS011;51056;50.330;7.914;2023-06-22T02:45:14;12.52;;;6.97;;
64643;SDS011;51056;50.330;7.914;2023-06-22T02:48:20;8.98;;;5.95;;
64643;SDS011;51056;50.330;7.914;2023-06-22T02:51:23;7.22;;;5.55;;
64643;SDS011;51056;50.330;7.914;2023-06-22T02:54:26;7.57;;;6.25;;
64643;SDS011;51056;50.330;7.914;2023-06-22T02:57:30;8.13;;;6.53;;
64643;SDS011;51056;50.330;7.914;2023-06-22T03:00:34;10.82;;;6.13;;
64643;SDS011;51056;50.330;7.914;2023-06-22T03:03:43;8.98;;;6.10;;
64643;SDS011;51056;50.330;7.914;2023-06-22T03:06:46;6.93;;;6.20;;
64643;SDS011;51056;50.330;7.914;2023-06-22T03:09:54;7.72;;;6.40;;
64643;SDS011;51056;50.330;7.914;2023-06-22T03:12:57;10.45;;;6.55;;
64643;SDS011;51056;50.330;7.914;2023-06-22T03:16:07;8.15;;;5.97;;
64643;SDS011;51056;50.330;7.914;2023-06-22T03:19:15;9.45;;;6.43;;
64643;SDS011;51056;50.330;7.914;2023-06-22T03:22:20;7.28;;;6.13;;
64643;SDS011;51056;50.330;7.914;2023-06-22T03:25:24;7.00;;;6.30;;
64643;SDS011;51056;50.330;7.914;2023-06-22T03:28:27;7.63;;;6.82;;
64643;SDS011;51056;50.330;7.914;2023-06-22T03:31:30;7.28;;;6.57;;
64643;SDS011;51056;50.330;7.914;2023-06-22T03:34:34;9.60;;;6.82;;
64643;SDS011;51056;50.330;7.914;2023-06-22T03:37:41;7.28;;;6.55;;
64643;SDS011;51056;50.330;7.914;2023-06-22T03:40:45;8.77;;;7.30;;
64643;SDS011;51056;50.330;7.914;2023-06-22T03:43:48;12.07;;;6.18;;
64643;SDS011;51056;50.330;7.914;2023-06-22T03:46:51;21.25;;;8.32;;
64643;SDS011;51056;50.330;7.914;2023-06-22T03:49:57;7.88;;;6.13;;
64643;SDS011;51056;50.330;7.914;2023-06-22T03:53:00;9.05;;;6.97;;
64643;SDS011;51056;50.330;7.914;2023-06-22T03:56:04;7.93;;;7.13;;
64643;SDS011;51056;50.330;7.914;2023-06-22T03:59:07;7.68;;;6.70;;
64643;SDS011;51056;50.330;7.914;2023-06-22T04:02:10;12.55;;;7.03;;
64643;SDS011;51056;50.330;7.914;2023-06-22T04:05:14;8.23;;;7.03;;
64643;SDS011;51056;50.330;7.914;2023-06-22T04:08:17;12.63;;;7.80;;
64643;SDS011;51056;50.330;7.914;2023-06-22T04:11:21;8.82;;;6.97;;
64643;SDS011;51056;50.330;7.914;2023-06-22T04:14:30;8.32;;;6.93;;
64643;SDS011;51056;50.330;7.914;2023-06-22T04:17:33;10.00;;;7.45;;
64643;SDS011;51056;50.330;7.914;2023-06-22T04:20:37;10.98;;;7.68;;
64643;SDS011;51056;50.330;7.914;2023-06-22T04:27:34;8.35;;;7.00;;
64643;SDS011;51056;50.330;7.914;2023-06-22T04:30:44;10.80;;;7.20;;
64643;SDS011;51056;50.330;7.914;2023-06-22T04:33:50;8.40;;;6.90;;
64643;SDS011;51056;50.330;7.914;2023-06-22T04:36:53;9.63;;;7.60;;
64643;SDS011;51056;50.330;7.914;2023-06-22T04:39:57;9.63;;;8.20;;
64643;SDS011;51056;50.330;7.914;2023-06-22T04:43:01;13.05;;;7.18;;
64643;SDS011;51056;50.330;7.914;2023-06-22T04:46:05;9.95;;;7.65;;
64643;SDS011;51056;50.330;7.914;2023-06-22T04:49:09;8.82;;;7.93;;
64643;SDS011;51056;50.330;7.914;2023-06-22T04:52:13;11.45;;;8.30;;
64643;SDS011;51056;50.330;7.914;2023-06-22T04:55:23;8.95;;;8.10;;
64643;SDS011;51056;50.330;7.914;2023-06-22T04:58:28;8.13;;;7.30;;
64643;SDS011;51056;50.330;7.914;2023-06-22T05:01:35;8.65;;;7.82;;
64643;SDS011;51056;50.330;7.914;2023-06-22T05:04:38;9.73;;;8.45;;
64643;SDS011;51056;50.330;7.914;2023-06-22T05:07:43;8.93;;;8.07;;
64643;SDS011;51056;50.330;7.914;2023-06-22T05:10:48;12.27;;;8.65;;
64643;SDS011;51056;50.330;7.914;2023-06-22T05:13:52;9.68;;;8.20;;
64643;SDS011;51056;50.330;7.914;2023-06-22T05:16:55;9.40;;;8.13;;
64643;SDS011;51056;50.330;7.914;2023-06-22T05:20:04;8.43;;;7.50;;
64643;SDS011;51056;50.330;7.914;2023-06-22T05:23:09;10.68;;;8.13;;
64643;SDS011;51056;50.330;7.914;2023-06-22T05:26:13;10.05;;;7.95;;
64643;SDS011;51056;50.330;7.914;2023-06-22T05:29:17;9.18;;;8.27;;
64643;SDS011;51056;50.330;7.914;2023-06-22T05:32:20;8.80;;;7.53;;
64643;SDS011;51056;50.330;7.914;2023-06-22T05:35:24;7.55;;;6.63;;
64643;SDS011;51056;50.330;7.914;2023-06-22T05:38:27;9.18;;;7.05;;
64643;SDS011;51056;50.330;7.914;2023-06-22T05:41:30;8.05;;;6.93;;
64643;SDS011;51056;50.330;7.914;2023-06-22T05:44:34;8.75;;;7.15;;
64643;SDS011;51056;50.330;7.914;2023-06-22T05:47:39;10.23;;;8.15;;
64643;SDS011;51056;50.330;7.914;2023-06-22T05:50:45;11.02;;;7.88;;
64643;SDS011;51056;50.330;7.914;2023-06-22T05:53:48;9.07;;;8.18;;
64643;SDS011;51056;50.330;7.914;2023-06-22T05:57:17;9.73;;;8.52;;
64643;SDS011;51056;50.330;7.914;2023-06-22T06:00:26;9.82;;;7.78;;
64643;SDS011;51056;50.330;7.914;2023-06-22T06:03:33;11.60;;;8.07;;
64643;SDS011;51056;50.330;7.914;2023-06-22T06:06:43;9.65;;;8.65;;
64643;SDS011;51056;50.330;7.914;2023-06-22T06:09:50;13.45;;;8.00;;
64643;SDS011;51056;50.330;7.914;2023-06-22T06:12:53;9.23;;;7.78;;
64643;SDS011;51056;50.330;7.914;2023-06-22T06:15:59;10.02;;;7.78;;
64643;SDS011;51056;50.330;7.914;2023-06-22T06:19:07;10.25;;;8.25;;
64643;SDS011;51056;50.330;7.914;2023-06-22T06:22:10;13.10;;;8.68;;
64643;SDS011;51056;50.330;7.914;2023-06-22T06:25:15;8.95;;;8.13;;
64643;SDS011;51056;50.330;7.914;2023-06-22T06:28:18;10.70;;;8.45;;
64643;SDS011;51056;50.330;7.914;2023-06-22T06:31:22;9.40;;;8.35;;
64643;SDS011;51056;50.330;7.914;2023-06-22T06:34:26;12.50;;;8.02;;
64643;SDS011;51056;50.330;7.914;2023-06-22T06:37:30;8.88;;;8.00;;
64643;SDS011;51056;50.330;7.914;2023-06-22T06:40:40;11.50;;;8.52;;
64643;SDS011;51056;50.330;7.914;2023-06-22T06:43:47;14.25;;;8.70;;
64643;SDS011;51056;50.330;7.914;2023-06-22T06:46:50;11.70;;;8.82;;
64643;SDS011;51056;50.330;7.914;2023-06-22T06:49:58;9.55;;;8.60;;
64643;SDS011;51056;50.330;7.914;2023-06-22T06:53:01;8.93;;;8.13;;
64643;SDS011;51056;50.330;7.914;2023-06-22T06:56:10;8.48;;;7.68;;
64643;SDS011;51056;50.330;7.914;2023-06-22T06:59:15;12.35;;;9.05;;
64643;SDS011;51056;50.330;7.914;2023-06-22T07:02:19;11.32;;;7.80;;
64643;SDS011;51056;50.330;7.914;2023-06-22T07:05:23;11.60;;;9.02;;
64643;SDS011;51056;50.330;7.914;2023-06-22T07:08:26;9.82;;;8.82;;
64643;SDS011;51056;50.330;7.914;2023-06-22T07:11:29;9.63;;;8.10;;
64643;SDS011;51056;50.330;7.914;2023-06-22T07:14:36;10.15;;;8.68;;
64643;SDS011;51056;50.330;7.914;2023-06-22T07:17:42;11.00;;;8.45;;
64643;SDS011;51056;50.330;7.914;2023-06-22T07:20:45;10.68;;;9.10;;
64643;SDS011;51056;50.330;7.914;2023-06-22T07:23:49;11.05;;;8.77;;
64643;SDS011;51056;50.330;7.914;2023-06-22T07:26:53;9.95;;;8.63;;
64643;SDS011;51056;50.330;7.914;2023-06-22T07:29:57;9.27;;;8.10;;
64643;SDS011;51056;50.330;7.914;2023-06-22T07:33:01;9.48;;;8.18;;
64643;SDS011;51056;50.330;7.914;2023-06-22T07:36:09;8.38;;;7.57;;
64643;SDS011;51056;50.330;7.914;2023-06-22T07:39:22;9.30;;;8.20;;
64643;SDS011;51056;50.330;7.914;2023-06-22T07:43:39;11.07;;;8.00;;
64643;SDS011;51056;50.330;7.914;2023-06-22T07:46:45;10.35;;;7.70;;
64643;SDS011;51056;50.330;7.914;2023-06-22T07:49:52;11.40;;;7.63;;
64643;SDS011;51056;50.330;7.914;2023-06-22T07:53:00;8.90;;;7.80;;
64643;SDS011;51056;50.330;7.914;2023-06-22T07:56:04;9.20;;;8.20;;
64643;SDS011;51056;50.330;7.914;2023-06-22T07:59:12;11.50;;;7.80;;
64643;SDS011;51056;50.330;7.914;2023-06-22T08:02:15;9.13;;;7.45;;
64643;SDS011;51056;50.330;7.914;2023-06-22T08:05:21;10.45;;;8.73;;
64643;SDS011;51056;50.330;7.914;2023-06-22T08:08:26;9.13;;;7.47;;
64643;SDS011;51056;50.330;7.914;2023-06-22T08:11:29;8.27;;;7.38;;
64643;SDS011;51056;50.330;7.914;2023-06-22T08:14:33;9.30;;;7.85;;
64643;SDS011;51056;50.330;7.914;2023-06-22T08:17:43;14.32;;;9.52;;
64643;SDS011;51056;50.330;7.914;2023-06-22T08:20:47;9.18;;;7.05;;
64643;SDS011;51056;50.330;7.914;2023-06-22T08:23:50;8.65;;;7.22;;
64643;SDS011;51056;50.330;7.914;2023-06-22T08:26:54;8.70;;;7.50;;
64643;SDS011;51056;50.330;7.914;2023-06-22T08:29:59;9.40;;;7.22;;
64643;SDS011;51056;50.330;7.914;2023-06-22T08:33:02;9.95;;;7.32;;
64643;SDS011;51056;50.330;7.914;2023-06-22T08:36:06;10.27;;;8.35;;
64643;SDS011;51056;50.330;7.914;2023-06-22T08:39:11;8.15;;;7.18;;
64643;SDS011;51056;50.330;7.914;2023-06-22T08:42:14;11.13;;;8.73;;
64643;SDS011;51056;50.330;7.914;2023-06-22T08:45:18;9.57;;;7.13;;
64643;SDS011;51056;50.330;7.914;2023-06-22T08:48:21;12.60;;;7.32;;
64643;SDS011;51056;50.330;7.914;2023-06-22T08:51:24;13.55;;;7.47;;
64643;SDS011;51056;50.330;7.914;2023-06-22T08:54:28;8.48;;;7.63;;
64643;SDS011;51056;50.330;7.914;2023-06-22T08:57:31;8.73;;;7.20;;
64643;SDS011;51056;50.330;7.914;2023-06-22T09:00:35;8.80;;;7.30;;
64643;SDS011;51056;50.330;7.914;2023-06-22T09:03:38;8.27;;;7.43;;
64643;SDS011;51056;50.330;7.914;2023-06-22T09:06:43;10.70;;;8.25;;
64643;SDS011;51056;50.330;7.914;2023-06-22T09:09:48;9.32;;;7.80;;
64643;SDS011;51056;50.330;7.914;2023-06-22T09:12:51;10.50;;;8.07;;
64643;SDS011;51056;50.330;7.914;2023-06-22T09:15:55;7.90;;;7.05;;
64643;SDS011;51056;50.330;7.914;2023-06-22T09:18:58;8.65;;;7.70;;
64643;SDS011;51056;50.330;7.914;2023-06-22T09:22:01;9.00;;;7.68;;
64643;SDS011;51056;50.330;7.914;2023-06-22T09:25:06;8.30;;;7.50;;
64643;SDS011;51056;50.330;7.914;2023-06-22T09:28:10;8.07;;;6.95;;
64643;SDS011;51056;50.330;7.914;2023-06-22T09:31:13;8.15;;;7.35;;
64643;SDS011;51056;50.330;7.914;2023-06-22T09:34:17;9.23;;;8.32;;
64643;SDS011;51056;50.330;7.914;2023-06-22T09:37:23;10.98;;;7.68;;
64643;SDS011;51056;50.330;7.914;2023-06-22T09:40:26;8.20;;;7.32;;
64643;SDS011;51056;50.330;7.914;2023-06-22T09:43:31;8.63;;;6.88;;
64643;SDS011;51056;50.330;7.914;2023-06-22T09:46:35;8.38;;;7.00;;
64643;SDS011;51056;50.330;7.914;2023-06-22T09:49:38;9.13;;;7.25;;
64643;SDS011;51056;50.330;7.914;2023-06-22T09:52:42;7.30;;;6.55;;
64643;SDS011;51056;50.330;7.914;2023-06-22T09:55:47;8.55;;;6.65;;
64643;SDS011;51056;50.330;7.914;2023-06-22T09:58:50;7.22;;;6.53;;
64643;SDS011;51056;50.330;7.914;2023-06-22T10:01:55;8.18;;;6.90;;
64643;SDS011;51056;50.330;7.914;2023-06-22T10:04:58;8.90;;;7.18;;
64643;SDS011;51056;50.330;7.914;2023-06-22T10:08:02;10.02;;;6.63;;
64643;SDS011;51056;50.330;7.914;2023-06-22T10:11:05;8.02;;;6.50;;
64643;SDS011;51056;50.330;7.914;2023-06-22T10:14:09;10.10;;;6.78;;
64643;SDS011;51056;50.330;7.914;2023-06-22T10:17:13;7.95;;;6.85;;
64643;SDS011;51056;50.330;7.914;2023-06-22T10:20:17;11.65;;;6.32;;
64643;SDS011;51056;50.330;7.914;2023-06-22T10:23:21;9.02;;;6.85;;
64643;SDS011;51056;50.330;7.914;2023-06-22T10:26:25;10.18;;;6.60;;
64643;SDS011;51056;50.330;7.914;2023-06-22T10:29:31;8.75;;;7.13;;
64643;SDS011;51056;50.330;7.914;2023-06-22T10:32:35;16.15;;;6.32;;
64643;SDS011;51056;50.330;7.914;2023-06-22T10:35:40;7.63;;;6.65;;
64643;SDS011;51056;50.330;7.914;2023-06-22T10:38:43;9.07;;;6.43;;
64643;SDS011;51056;50.330;7.914;2023-06-22T10:41:46;8.40;;;6.03;;
64643;SDS011;51056;50.330;7.914;2023-06-22T10:44:51;7.72;;;5.68;;
64643;SDS011;51056;50.330;7.914;2023-06-22T10:47:55;6.60;;;5.47;;
64643;SDS011;51056;50.330;7.914;2023-06-22T10:50:58;9.57;;;5.82;;
64643;SDS011;51056;50.330;7.914;2023-06-22T10:54:02;11.57;;;6.07;;
64643;SDS011;51056;50.330;7.914;2023-06-22T10:57:07;7.57;;;6.07;;
64643;SDS011;51056;50.330;7.914;2023-06-22T11:00:11;9.30;;;5.40;;
64643;SDS011;51056;50.330;7.914;2023-06-22T11:03:21;7.50;;;5.78;;
64643;SDS011;51056;50.330;7.914;2023-06-22T11:06:25;6.43;;;5.57;;
64643;SDS011;51056;50.330;7.914;2023-06-22T11:09:29;7.18;;;5.75;;
64643;SDS011;51056;50.330;7.914;2023-06-22T11:12:35;8.60;;;5.30;;
64643;SDS011;51056;50.330;7.914;2023-06-22T11:15:38;6.93;;;5.47;;
64643;SDS011;51056;50.330;7.914;2023-06-22T11:18:43;6.13;;;5.53;;
64643;SDS011;51056;50.330;7.914;2023-06-22T11:21:46;6.40;;;5.32;;
64643;SDS011;51056;50.330;7.914;2023-06-22T11:24:49;8.50;;;5.68;;
64643;SDS011;51056;50.330;7.914;2023-06-22T11:27:53;8.93;;;5.70;;
64643;SDS011;51056;50.330;7.914;2023-06-22T11:30:56;9.20;;;6.00;;
64643;SDS011;51056;50.330;7.914;2023-06-22T11:34:00;7.30;;;5.78;;
64643;SDS011;51056;50.330;7.914;2023-06-22T11:37:03;6.50;;;5.60;;
64643;SDS011;51056;50.330;7.914;2023-06-22T11:40:07;6.78;;;5.55;;
64643;SDS011;51056;50.330;7.914;2023-06-22T11:43:12;7.65;;;5.65;;
64643;SDS011;51056;50.330;7.914;2023-06-22T11:46:17;8.30;;;6.10;;
64643;SDS011;51056;50.330;7.914;2023-06-22T11:49:21;7.15;;;5.47;;
64643;SDS011;51056;50.330;7.914;2023-06-22T11:52:25;6.72;;;5.75;;
64643;SDS011;51056;50.330;7.914;2023-06-22T11:55:30;10.13;;;6.22;;
64643;SDS011;51056;50.330;7.914;2023-06-22T11:58:33;10.57;;;5.93;;
64643;SDS011;51056;50.330;7.914;2023-06-22T12:01:36;7.63;;;6.07;;
64643;SDS011;51056;50.330;7.914;2023-06-22T12:04:40;9.30;;;5.88;;
64643;SDS011;51056;50.330;7.914;2023-06-22T12:07:43;7.20;;;5.75;;
64643;SDS011;51056;50.330;7.914;2023-06-22T12:10:46;10.73;;;6.25;;
64643;SDS011;51056;50.330;7.914;2023-06-22T12:13:50;10.20;;;6.22;;
64643;SDS011;51056;50.330;7.914;2023-06-22T12:16:54;8.93;;;6.43;;
64643;SDS011;51056;50.330;7.914;2023-06-22T12:20:01;10.15;;;6.38;;
64643;SDS011;51056;50.330;7.914;2023-06-22T12:23:07;9.48;;;6.25;;
64643;SDS011;51056;50.330;7.914;2023-06-22T12:26:10;12.23;;;7.32;;
64643;SDS011;51056;50.330;7.914;2023-06-22T12:29:17;11.05;;;6.75;;
64643;SDS011;51056;50.330;7.914;2023-06-22T12:32:26;9.23;;;7.03;;
64643;SDS011;51056;50.330;7.914;2023-06-22T12:35:29;11.05;;;6.20;;
64643;SDS011;51056;50.330;7.914;2023-06-22T12:38:33;13.90;;;6.85;;
64643;SDS011;51056;50.330;7.914;2023-06-22T12:41:36;8.70;;;6.00;;
64643;SDS011;51056;50.330;7.914;2023-06-22T12:44:40;10.57;;;6.70;;
64643;SDS011;51056;50.330;7.914;2023-06-22T12:51:20;9.85;;;6.90;;
64643;SDS011;51056;50.330;7.914;2023-06-22T12:54:24;8.65;;;6.90;;
64643;SDS011;51056;50.330;7.914;2023-06-22T12:57:29;11.13;;;6.32;;
64643;SDS011;51056;50.330;7.914;2023-06-22T13:00:32;15.27;;;7.63;;
64643;SDS011;51056;50.330;7.914;2023-06-22T13:03:35;10.43;;;6.68;;
64643;SDS011;51056;50.330;7.914;2023-06-22T13:06:39;8.27;;;6.57;;
64643;SDS011;51056;50.330;7.914;2023-06-22T13:09:42;9.52;;;6.75;;
64643;SDS011;51056;50.330;7.914;2023-06-22T13:12:48;12.00;;;7.25;;
64643;SDS011;51056;50.330;7.914;2023-06-22T13:15:52;10.50;;;7.40;;
64643;SDS011;51056;50.330;7.914;2023-06-22T13:18:55;10.65;;;6.88;;
64643;SDS011;51056;50.330;7.914;2023-06-22T13:21:59;9.40;;;6.93;;
64643;SDS011;51056;50.330;7.914;2023-06-22T13:29:17;10.57;;;6.55;;
64643;SDS011;51056;50.330;7.914;2023-06-22T13:32:26;13.73;;;7.47;;
64643;SDS011;51056;50.330;7.914;2023-06-22T13:35:30;11.68;;;6.63;;
64643;SDS011;51056;50.330;7.914;2023-06-22T13:38:35;11.30;;;6.65;;
64643;SDS011;51056;50.330;7.914;2023-06-22T13:41:41;10.60;;;7.28;;
64643;SDS011;51056;50.330;7.914;2023-06-22T13:44:47;10.95;;;6.60;;
64643;SDS011;51056;50.330;7.914;2023-06-22T13:47:50;17.48;;;7.38;;
64643;SDS011;51056;50.330;7.914;2023-06-22T13:50:53;8.68;;;7.13;;
64643;SDS011;51056;50.330;7.914;2023-06-22T13:53:57;9.20;;;6.03;;
64643;SDS011;51056;50.330;7.914;2023-06-22T13:57:01;12.93;;;6.97;;
64643;SDS011;51056;50.330;7.914;2023-06-22T14:00:05;11.00;;;6.40;;
64643;SDS011;51056;50.330;7.914;2023-06-22T14:03:15;13.10;;;6.40;;
64643;SDS011;51056;50.330;7.914;2023-06-22T14:06:21;9.68;;;6.82;;
64643;SDS011;51056;50.330;7.914;2023-06-22T14:09:24;16.38;;;7.03;;
64643;SDS011;51056;50.330;7.914;2023-06-22T14:12:28;13.13;;;6.00;;
64643;SDS011;51056;50.330;7.914;2023-06-22T14:15:33;16.55;;;6.65;;
64643;SDS011;51056;50.330;7.914;2023-06-22T14:18:36;30.95;;;8.30;;
64643;SDS011;51056;50.330;7.914;2023-06-22T14:21:40;23.35;;;8.90;;
64643;SDS011;51056;50.330;7.914;2023-06-22T14:24:46;24.58;;;9.93;;
64643;SDS011;51056;50.330;7.914;2023-06-22T14:27:51;26.42;;;9.68;;
64643;SDS011;51056;50.330;7.914;2023-06-22T14:30:54;24.10;;;8.77;;
64643;SDS011;51056;50.330;7.914;2023-06-22T14:33:57;20.77;;;7.90;;
64643;SDS011;51056;50.330;7.914;2023-06-22T14:37:02;23.20;;;7.90;;
64643;SDS011;51056;50.330;7.914;2023-06-22T14:40:07;22.67;;;7.60;;
64643;SDS011;51056;50.330;7.914;2023-06-22T14:43:11;23.20;;;7.20;;
64643;SDS011;51056;50.330;7.914;2023-06-22T14:46:15;26.77;;;8.80;;
64643;SDS011;51056;50.330;7.914;2023-06-22T14:58:51;13.93;;;6.18;;
64643;SDS011;51056;50.330;7.914;2023-06-22T15:01:58;21.23;;;7.22;;
64643;SDS011;51056;50.330;7.914;2023-06-22T15:18:58;17.70;;;5.40;;
64643;SDS011;51056;50.330;7.914;2023-06-22T15:22:15;15.00;;;4.85;;
64643;SDS011;51056;50.330;7.914;2023-06-22T15:25:20;16.00;;;5.03;;
64643;SDS011;51056;50.330;7.914;2023-06-22T15:28:26;11.38;;;4.20;;
64643;SDS011;51056;50.330;7.914;2023-06-22T15:31:36;18.77;;;4.25;;
64643;SDS011;51056;50.330;7.914;2023-06-22T15:34:40;12.98;;;4.10;;
64643;SDS011;51056;50.330;7.914;2023-06-22T15:37:44;15.45;;;5.18;;
64643;SDS011;51056;50.330;7.914;2023-06-22T15:40:56;15.88;;;4.85;;
64643;SDS011;51056;50.330;7.914;2023-06-22T15:44:12;13.25;;;4.40;;
64643;SDS011;51056;50.330;7.914;2023-06-22T15:47:18;14.60;;;4.10;;
64643;SDS011;51056;50.330;7.914;2023-06-22T15:50:30;12.98;;;4.63;;
64643;SDS011;51056;50.330;7.914;2023-06-22T15:53:33;14.23;;;5.13;;
64643;SDS011;51056;50.330;7.914;2023-06-22T15:56:37;18.27;;;4.60;;
64643;SDS011;51056;50.330;7.914;2023-06-22T15:59:40;15.85;;;4.38;;
64643;SDS011;51056;50.330;7.914;2023-06-22T16:02:45;18.30;;;5.20;;
64643;SDS011;51056;50.330;7.914;2023-06-22T16:05:50;14.80;;;4.97;;
64643;SDS011;51056;50.330;7.914;2023-06-22T16:08:55;18.95;;;5.07;;
64643;SDS011;51056;50.330;7.914;2023-06-22T16:11:58;17.83;;;5.00;;
64643;SDS011;51056;50.330;7.914;2023-06-22T16:15:02;19.27;;;4.32;;
64643;SDS011;51056;50.330;7.914;2023-06-22T16:18:13;11.73;;;4.20;;
64643;SDS011;51056;50.330;7.914;2023-06-22T16:22:11;12.07;;;4.82;;
64643;SDS011;51056;50.330;7.914;2023-06-22T16:42:09;9.90;;;4.15;;
64643;SDS011;51056;50.330;7.914;2023-06-22T16:45:13;13.88;;;5.00;;
64643;SDS011;51056;50.330;7.914;2023-06-22T16:51:38;18.90;;;5.88;;
64643;SDS011;51056;50.330;7.914;2023-06-22T16:59:32;12.73;;;4.63;;
64643;SDS011;51056;50.330;7.914;2023-06-22T17:02:48;13.45;;;4.07;;
64643;SDS011;51056;50.330;7.914;2023-06-22T17:07:39;16.15;;;4.40;;
64643;SDS011;51056;50.330;7.914;2023-06-22T17:10:52;14.77;;;5.13;;
64643;SDS011;51056;50.330;7.914;2023-06-22T17:14:21;15.73;;;4.85;;
64643;SDS011;51056;50.330;7.914;2023-06-22T17:17:42;10.95;;;4.18;;
64643;SDS011;51056;50.330;7.914;2023-06-22T17:20:52;9.52;;;4.00;;
64643;SDS011;51056;50.330;7.914;2023-06-22T17:23:58;11.48;;;4.60;;
64643;SDS011;51056;50.330;7.914;2023-06-22T17:27:05;15.05;;;4.78;;
64643;SDS011;51056;50.330;7.914;2023-06-22T17:30:10;10.98;;;4.53;;
64643;SDS011;51056;50.330;7.914;2023-06-22T17:33:55;13.30;;;4.22;;
64643;SDS011;51056;50.330;7.914;2023-06-22T17:37:01;11.50;;;4.63;;
64643;SDS011;51056;50.330;7.914;2023-06-22T17:40:07;12.18;;;5.10;;
64643;SDS011;51056;50.330;7.914;2023-06-22T17:43:26;11.50;;;5.00;;
64643;SDS011;51056;50.330;7.914;2023-06-22T17:46:35;16.38;;;4.65;;
64643;SDS011;51056;50.330;7.914;2023-06-22T17:56:21;12.27;;;4.25;;
64643;SDS011;51056;50.330;7.914;2023-06-22T17:59:32;13.27;;;3.80;;
64643;SDS011;51056;50.330;7.914;2023-06-22T18:02:52;14.40;;;4.32;;
64643;SDS011;51056;50.330;7.914;2023-06-22T18:05:59;11.55;;;4.82;;
64643;SDS011;51056;50.330;7.914;2023-06-22T18:09:04;7.80;;;3.67;;
64643;SDS011;51056;50.330;7.914;2023-06-22T18:12:09;12.18;;;4.05;;
64643;SDS011;51056;50.330;7.914;2023-06-22T18:15:13;11.55;;;4.20;;
64643;SDS011;51056;50.330;7.914;2023-06-22T18:18:16;9.45;;;4.30;;
64643;SDS011;51056;50.330;7.914;2023-06-22T18:21:22;12.52;;;4.50;;
64643;SDS011;51056;50.330;7.914;2023-06-22T18:24:26;14.75;;;4.85;;
64643;SDS011;51056;50.330;7.914;2023-06-22T18:28:16;11.02;;;4.50;;
64643;SDS011;51056;50.330;7.914;2023-06-22T18:31:28;10.93;;;4.35;;
64643;SDS011;51056;50.330;7.914;2023-06-22T18:34:36;12.75;;;4.95;;
64643;SDS011;51056;50.330;7.914;2023-06-22T18:37:45;16.90;;;4.43;;
64643;SDS011;51056;50.330;7.914;2023-06-22T18:45:24;11.35;;;4.50;;
64643;SDS011;51056;50.330;7.914;2023-06-22T18:48:43;9.70;;;4.43;;
64643;SDS011;51056;50.330;7.914;2023-06-22T18:52:32;11.65;;;4.90;;
64643;SDS011;51056;50.330;7.914;2023-06-22T18:55:35;12.00;;;4.03;;
64643;SDS011;51056;50.330;7.914;2023-06-22T18:59:11;12.07;;;4.45;;
64643;SDS011;51056;50.330;7.914;2023-06-22T19:03:00;16.25;;;5.00;;
64643;SDS011;51056;50.330;7.914;2023-06-22T19:06:01;10.38;;;4.47;;
64643;SDS011;51056;50.330;7.914;2023-06-22T19:16:28;15.65;;;4.53;;
64643;SDS011;51056;50.330;7.914;2023-06-22T19:19:36;10.48;;;4.97;;
64643;SDS011;51056;50.330;7.914;2023-06-22T19:22:53;14.18;;;5.32;;
64643;SDS011;51056;50.330;7.914;2023-06-22T19:26:06;12.98;;;4.35;;
64643;SDS011;51056;50.330;7.914;2023-06-22T19:29:28;9.60;;;4.35;;
64643;SDS011;51056;50.330;7.914;2023-06-22T19:32:41;14.27;;;4.65;;
64643;SDS011;51056;50.330;7.914;2023-06-22T19:44:38;10.10;;;4.35;;
64643;SDS011;51056;50.330;7.914;2023-06-22T19:48:17;13.68;;;4.68;;
64643;SDS011;51056;50.330;7.914;2023-06-22T19:51:24;14.45;;;4.38;;
64643;SDS011;51056;50.330;7.914;2023-06-22T21:50:22;5.15;;;3.20;;
64643;SDS011;51056;50.330;7.914;2023-06-22T21:53:27;7.20;;;3.78;;
64643;SDS011;51056;50.330;7.914;2023-06-22T21:56:31;5.38;;;3.60;;
64643;SDS011;51056;50.330;7.914;2023-06-22T21:59:35;4.32;;;3.15;;
64643;SDS011;51056;50.330;7.914;2023-06-22T22:02:38;5.03;;;3.92;;